sensor_id;sensor_type;location;lat;lon;timestamp;pressure;altitude;pressure_sealevel;temperature;humidity
72707;BME280;62517;62.630;17.936;2022-08-16T05:55:58;101320.01;;;20.71;45.36
72707;BME280;62517;62.630;17.936;2022-08-16T05:58:27;101320.89;;;20.67;45.09
72707;BME280;62517;62.630;17.936;2022-08-16T06:00:55;101317.21;;;20.73;44.90
72707;BME280;62517;62.630;17.936;2022-08-16T06:03:23;101315.10;;;20.77;44.68
72707;BME280;62517;62.630;17.936;2022-08-16T06:05:53;101316.27;;;20.87;44.49
72707;BME280;62517;62.630;17.936;2022-08-16T06:08:21;101313.73;;;20.95;44.29
72707;BME280;62517;62.630;17.936;2022-08-16T06:10:48;101312.71;;;21.27;44.25
72707;BME280;62517;62.630;17.936;2022-08-16T06:13:16;101311.20;;;21.62;43.68
72707;BME280;62517;62.630;17.936;2022-08-16T06:17:54;101309.33;;;22.04;43.16
72707;BME280;62517;62.630;17.936;2022-08-16T06:20:26;101307.32;;;22.42;42.78
72707;BME280;62517;62.630;17.936;2022-08-16T06:22:56;101308.86;;;22.61;42.71
72707;BME280;62517;62.630;17.936;2022-08-16T06:25:26;101303.15;;;22.80;42.39
72707;BME280;62517;62.630;17.936;2022-08-16T06:27:54;101303.32;;;23.24;42.09
72707;BME280;62517;62.630;17.936;2022-08-16T06:30:23;101302.15;;;23.46;41.87
72707;BME280;62517;62.630;17.936;2022-08-16T06:32:52;101303.43;;;23.58;41.49
72707;BME280;62517;62.630;17.936;2022-08-16T06:35:20;101304.35;;;23.86;41.53
72707;BME280;62517;62.630;17.936;2022-08-16T06:37:48;101306.24;;;23.98;41.30
72707;BME280;62517;62.630;17.936;2022-08-16T06:40:15;101308.57;;;24.16;41.31
72707;BME280;62517;62.630;17.936;2022-08-16T06:42:45;101310.69;;;24.30;40.94
72707;BME280;62517;62.630;17.936;2022-08-16T06:45:13;101310.44;;;24.52;40.96
72707;BME280;62517;62.630;17.936;2022-08-16T06:47:41;101308.52;;;24.56;40.80
72707;BME280;62517;62.630;17.936;2022-08-16T06:50:10;101307.01;;;24.79;40.83
72707;BME280;62517;62.630;17.936;2022-08-16T06:52:40;101304.95;;;24.86;40.79
72707;BME280;62517;62.630;17.936;2022-08-16T06:55:09;101305.07;;;24.95;40.49
72707;BME280;62517;62.630;17.936;2022-08-16T06:57:38;101298.40;;;25.08;40.56
72707;BME280;62517;62.630;17.936;2022-08-16T07:00:10;101296.49;;;25.21;40.36
72707;BME280;62517;62.630;17.936;2022-08-16T07:02:40;101296.21;;;25.44;40.41
72707;BME280;62517;62.630;17.936;2022-08-16T07:05:11;101294.94;;;25.49;40.31
72707;BME280;62517;62.630;17.936;2022-08-16T07:07:42;101294.89;;;25.56;40.10
72707;BME280;62517;62.630;17.936;2022-08-16T07:10:12;101294.86;;;25.59;40.20
72707;BME280;62517;62.630;17.936;2022-08-16T07:12:40;101298.05;;;25.66;40.17
72707;BME280;62517;62.630;17.936;2022-08-16T07:15:08;101298.64;;;25.76;40.12
72707;BME280;62517;62.630;17.936;2022-08-16T07:17:37;101297.27;;;25.81;40.04
72707;BME280;62517;62.630;17.936;2022-08-16T07:20:06;101295.88;;;25.83;39.99
72707;BME280;62517;62.630;17.936;2022-08-16T07:22:34;101293.65;;;25.90;39.94
72707;BME280;62517;62.630;17.936;2022-08-16T07:25:06;101291.36;;;26.12;39.90
72707;BME280;62517;62.630;17.936;2022-08-16T07:27:33;101288.29;;;26.14;39.81
72707;BME280;62517;62.630;17.936;2022-08-16T07:30:02;101286.98;;;26.07;39.61
72707;BME280;62517;62.630;17.936;2022-08-16T07:32:31;101285.32;;;26.30;39.72
72707;BME280;62517;62.630;17.936;2022-08-16T07:34:59;101284.27;;;26.22;39.64
72707;BME280;62517;62.630;17.936;2022-08-16T07:37:26;101282.64;;;26.26;39.47
72707;BME280;62517;62.630;17.936;2022-08-16T07:39:54;101285.13;;;26.33;39.55
72707;BME280;62517;62.630;17.936;2022-08-16T07:42:23;101283.52;;;26.35;39.43
72707;BME280;62517;62.630;17.936;2022-08-16T07:44:52;101286.89;;;26.50;39.41
72707;BME280;62517;62.630;17.936;2022-08-16T07:47:19;101287.94;;;26.45;39.50
72707;BME280;62517;62.630;17.936;2022-08-16T07:49:47;101286.93;;;26.70;39.39
72707;BME280;62517;62.630;17.936;2022-08-16T07:52:15;101287.50;;;26.72;39.41
72707;BME280;62517;62.630;17.936;2022-08-16T07:54:43;101289.02;;;26.66;39.37
72707;BME280;62517;62.630;17.936;2022-08-16T07:57:11;101291.50;;;26.76;39.32
72707;BME280;62517;62.630;17.936;2022-08-16T07:59:39;101293.85;;;26.63;39.36
72707;BME280;62517;62.630;17.936;2022-08-16T08:02:09;101296.21;;;26.72;39.21
72707;BME280;62517;62.630;17.936;2022-08-16T08:04:36;101295.03;;;26.81;39.14
72707;BME280;62517;62.630;17.936;2022-08-16T08:07:06;101297.96;;;26.97;39.10
72707;BME280;62517;62.630;17.936;2022-08-16T08:09:34;101305.74;;;27.04;39.14
72707;BME280;62517;62.630;17.936;2022-08-16T08:12:02;101307.03;;;26.92;39.26
72707;BME280;62517;62.630;17.936;2022-08-16T08:14:31;101305.59;;;26.99;39.25
72707;BME280;62517;62.630;17.936;2022-08-16T08:16:59;101304.70;;;27.06;39.21
72707;BME280;62517;62.630;17.936;2022-08-16T08:19:28;101308.29;;;27.02;39.20
72707;BME280;62517;62.630;17.936;2022-08-16T08:21:56;101304.31;;;27.17;39.24
72707;BME280;62517;62.630;17.936;2022-08-16T08:24:25;101304.92;;;27.19;39.26
72707;BME280;62517;62.630;17.936;2022-08-16T08:26:54;101302.86;;;27.26;39.14
72707;BME280;62517;62.630;17.936;2022-08-16T08:29:25;101302.55;;;27.17;39.23
72707;BME280;62517;62.630;17.936;2022-08-16T08:31:53;101299.56;;;27.18;39.20
72707;BME280;62517;62.630;17.936;2022-08-16T08:34:21;101299.46;;;27.37;38.96
72707;BME280;62517;62.630;17.936;2022-08-16T08:36:51;101296.58;;;27.41;39.12
72707;BME280;62517;62.630;17.936;2022-08-16T08:39:20;101297.12;;;27.49;39.00
72707;BME280;62517;62.630;17.936;2022-08-16T08:41:49;101296.25;;;27.32;38.97
72707;BME280;62517;62.630;17.936;2022-08-16T08:44:17;101294.03;;;27.53;38.93
72707;BME280;62517;62.630;17.936;2022-08-16T08:46:46;101294.17;;;27.53;39.08
72707;BME280;62517;62.630;17.936;2022-08-16T08:49:14;101294.17;;;27.66;38.97
72707;BME280;62517;62.630;17.936;2022-08-16T08:51:42;101293.83;;;27.56;39.07
72707;BME280;62517;62.630;17.936;2022-08-16T08:54:11;101292.66;;;27.60;39.04
72707;BME280;62517;62.630;17.936;2022-08-16T08:56:40;101289.62;;;27.76;39.03
72707;BME280;62517;62.630;17.936;2022-08-16T08:59:09;101287.38;;;27.62;38.81
72707;BME280;62517;62.630;17.936;2022-08-16T09:01:39;101287.87;;;27.91;38.98
72707;BME280;62517;62.630;17.936;2022-08-16T09:04:09;101288.20;;;27.89;38.94
72707;BME280;62517;62.630;17.936;2022-08-16T09:06:37;101286.30;;;27.75;39.04
72707;BME280;62517;62.630;17.936;2022-08-16T09:09:05;101286.25;;;27.83;38.97
72707;BME280;62517;62.630;17.936;2022-08-16T09:11:34;101288.85;;;27.88;38.92
72707;BME280;62517;62.630;17.936;2022-08-16T09:14:03;101293.71;;;27.83;39.02
72707;BME280;62517;62.630;17.936;2022-08-16T09:16:32;101293.56;;;27.97;38.82
72707;BME280;62517;62.630;17.936;2022-08-16T09:19:01;101289.58;;;27.88;38.88
72707;BME280;62517;62.630;17.936;2022-08-16T09:21:28;101286.45;;;27.94;38.63
72707;BME280;62517;62.630;17.936;2022-08-16T09:23:56;101278.96;;;27.96;38.78
72707;BME280;62517;62.630;17.936;2022-08-16T09:26:25;101277.14;;;28.10;38.76
72707;BME280;62517;62.630;17.936;2022-08-16T09:28:54;101275.71;;;28.19;38.67
72707;BME280;62517;62.630;17.936;2022-08-16T09:31:22;101275.22;;;28.13;38.62
72707;BME280;62517;62.630;17.936;2022-08-16T09:33:51;101268.66;;;28.13;38.65
72707;BME280;62517;62.630;17.936;2022-08-16T09:36:19;101266.64;;;28.30;38.79
72707;BME280;62517;62.630;17.936;2022-08-16T09:38:48;101263.52;;;28.18;38.73
72707;BME280;62517;62.630;17.936;2022-08-16T09:41:16;101262.96;;;28.30;38.74
72707;BME280;62517;62.630;17.936;2022-08-16T09:43:44;101258.06;;;28.33;38.73
72707;BME280;62517;62.630;17.936;2022-08-16T09:46:12;101262.31;;;28.40;38.59
72707;BME280;62517;62.630;17.936;2022-08-16T09:48:39;101257.40;;;28.41;38.62
72707;BME280;62517;62.630;17.936;2022-08-16T09:51:10;101252.44;;;28.29;38.47
72707;BME280;62517;62.630;17.936;2022-08-16T09:53:39;101254.85;;;28.29;38.66
72707;BME280;62517;62.630;17.936;2022-08-16T09:56:17;101259.51;;;28.51;38.54
72707;BME280;62517;62.630;17.936;2022-08-16T09:58:50;101262.18;;;28.47;38.57
72707;BME280;62517;62.630;17.936;2022-08-16T10:03:11;101260.66;;;28.51;38.66
72707;BME280;62517;62.630;17.936;2022-08-16T10:05:40;101259.88;;;28.55;38.54
72707;BME280;62517;62.630;17.936;2022-08-16T10:08:09;101259.70;;;28.68;38.50
72707;BME280;62517;62.630;17.936;2022-08-16T10:10:39;101260.98;;;28.55;38.40
72707;BME280;62517;62.630;17.936;2022-08-16T10:13:07;101266.13;;;28.70;38.51
72707;BME280;62517;62.630;17.936;2022-08-16T10:15:36;101265.14;;;28.64;38.43
72707;BME280;62517;62.630;17.936;2022-08-16T10:18:07;101263.25;;;28.60;38.45
72707;BME280;62517;62.630;17.936;2022-08-16T10:20:39;101262.79;;;28.73;38.42
72707;BME280;62517;62.630;17.936;2022-08-16T10:23:11;101262.64;;;28.59;38.48
72707;BME280;62517;62.630;17.936;2022-08-16T10:25:43;101262.70;;;28.73;38.48
72707;BME280;62517;62.630;17.936;2022-08-16T10:28:13;101264.95;;;28.74;38.42
72707;BME280;62517;62.630;17.936;2022-08-16T10:30:42;101263.31;;;28.84;38.51
72707;BME280;62517;62.630;17.936;2022-08-16T10:33:12;101264.66;;;28.76;38.34
72707;BME280;62517;62.630;17.936;2022-08-16T10:35:42;101262.86;;;28.95;38.49
72707;BME280;62517;62.630;17.936;2022-08-16T10:38:13;101260.39;;;28.71;38.45
72707;BME280;62517;62.630;17.936;2022-08-16T10:40:42;101259.21;;;28.82;38.44
72707;BME280;62517;62.630;17.936;2022-08-16T10:43:11;101260.01;;;28.89;38.44
72707;BME280;62517;62.630;17.936;2022-08-16T10:45:41;101266.18;;;28.86;38.45
72707;BME280;62517;62.630;17.936;2022-08-16T10:48:10;101269.58;;;28.88;38.37
72707;BME280;62517;62.630;17.936;2022-08-16T10:50:40;101271.40;;;28.93;38.46
72707;BME280;62517;62.630;17.936;2022-08-16T10:53:09;101264.75;;;28.92;38.35
72707;BME280;62517;62.630;17.936;2022-08-16T10:55:39;101266.00;;;29.01;38.30
72707;BME280;62517;62.630;17.936;2022-08-16T10:58:11;101271.95;;;28.92;38.36
72707;BME280;62517;62.630;17.936;2022-08-16T11:00:40;101275.09;;;29.00;38.39
72707;BME280;62517;62.630;17.936;2022-08-16T11:03:09;101277.81;;;28.97;38.45
72707;BME280;62517;62.630;17.936;2022-08-16T11:05:40;101282.61;;;29.02;38.57
72707;BME280;62517;62.630;17.936;2022-08-16T11:08:09;101274.66;;;29.09;38.47
72707;BME280;62517;62.630;17.936;2022-08-16T11:10:42;101266.72;;;29.07;38.53
72707;BME280;62517;62.630;17.936;2022-08-16T11:13:13;101264.73;;;29.08;38.41
72707;BME280;62517;62.630;17.936;2022-08-16T11:15:43;101267.07;;;29.12;38.50
72707;BME280;62517;62.630;17.936;2022-08-16T11:18:13;101265.66;;;29.24;38.45
72707;BME280;62517;62.630;17.936;2022-08-16T11:20:42;101264.20;;;29.19;38.37
72707;BME280;62517;62.630;17.936;2022-08-16T11:23:11;101264.04;;;29.17;38.39
72707;BME280;62517;62.630;17.936;2022-08-16T11:25:40;101262.21;;;29.30;38.48
72707;BME280;62517;62.630;17.936;2022-08-16T11:28:08;101260.37;;;29.21;38.45
72707;BME280;62517;62.630;17.936;2022-08-16T11:30:39;101252.99;;;29.22;38.32
72707;BME280;62517;62.630;17.936;2022-08-16T11:33:09;101250.99;;;29.38;38.39
72707;BME280;62517;62.630;17.936;2022-08-16T11:35:39;101252.38;;;29.33;38.39
72707;BME280;62517;62.630;17.936;2022-08-16T11:38:11;101251.83;;;29.22;38.38
72707;BME280;62517;62.630;17.936;2022-08-16T11:40:49;101249.93;;;29.38;38.42
72707;BME280;62517;62.630;17.936;2022-08-16T11:43:24;101246.60;;;29.29;38.48
72707;BME280;62517;62.630;17.936;2022-08-16T11:45:53;101255.20;;;29.32;38.44
72707;BME280;62517;62.630;17.936;2022-08-16T11:48:25;101256.52;;;29.33;38.50
72707;BME280;62517;62.630;17.936;2022-08-16T11:50:54;101259.70;;;29.17;38.44
72707;BME280;62517;62.630;17.936;2022-08-16T11:53:23;101258.00;;;29.37;38.42
72707;BME280;62517;62.630;17.936;2022-08-16T11:55:51;101260.95;;;29.52;38.42
72707;BME280;62517;62.630;17.936;2022-08-16T11:58:22;101262.21;;;29.35;38.51
72707;BME280;62517;62.630;17.936;2022-08-16T12:00:51;101269.52;;;29.36;38.53
72707;BME280;62517;62.630;17.936;2022-08-16T12:03:20;101262.95;;;29.40;38.52
72707;BME280;62517;62.630;17.936;2022-08-16T12:05:51;101261.58;;;29.40;38.49
72707;BME280;62517;62.630;17.936;2022-08-16T12:08:21;101256.48;;;29.51;38.35
72707;BME280;62517;62.630;17.936;2022-08-16T12:10:50;101254.45;;;29.46;38.47
72707;BME280;62517;62.630;17.936;2022-08-16T12:13:19;101253.37;;;29.47;38.43
72707;BME280;62517;62.630;17.936;2022-08-16T12:15:47;101250.34;;;29.42;38.45
72707;BME280;62517;62.630;17.936;2022-08-16T12:18:15;101249.99;;;29.48;38.46
72707;BME280;62517;62.630;17.936;2022-08-16T12:20:44;101252.49;;;29.42;38.41
72707;BME280;62517;62.630;17.936;2022-08-16T12:23:12;101253.25;;;29.49;38.28
72707;BME280;62517;62.630;17.936;2022-08-16T12:25:41;101257.12;;;29.49;38.38
72707;BME280;62517;62.630;17.936;2022-08-16T12:28:09;101259.33;;;29.58;38.37
72707;BME280;62517;62.630;17.936;2022-08-16T12:30:41;101253.06;;;29.48;38.44
72707;BME280;62517;62.630;17.936;2022-08-16T12:33:13;101248.31;;;29.52;38.32
72707;BME280;62517;62.630;17.936;2022-08-16T12:35:45;101247.13;;;29.50;38.42
72707;BME280;62517;62.630;17.936;2022-08-16T12:38:15;101245.01;;;29.56;38.29
72707;BME280;62517;62.630;17.936;2022-08-16T12:40:47;101243.81;;;29.70;38.34
72707;BME280;62517;62.630;17.936;2022-08-16T12:43:16;101248.80;;;29.57;38.30
72707;BME280;62517;62.630;17.936;2022-08-16T12:45:47;101244.24;;;29.60;38.32
72707;BME280;62517;62.630;17.936;2022-08-16T12:48:19;101241.03;;;29.56;38.29
72707;BME280;62517;62.630;17.936;2022-08-16T12:50:48;101238.05;;;29.58;38.26
72707;BME280;62517;62.630;17.936;2022-08-16T12:53:18;101234.29;;;29.65;38.31
72707;BME280;62517;62.630;17.936;2022-08-16T12:55:48;101227.86;;;29.64;38.33
72707;BME280;62517;62.630;17.936;2022-08-16T12:58:18;101224.33;;;29.64;38.38
72707;BME280;62517;62.630;17.936;2022-08-16T13:00:47;101223.87;;;29.71;38.30
72707;BME280;62517;62.630;17.936;2022-08-16T13:03:17;101216.33;;;29.53;38.42
72707;BME280;62517;62.630;17.936;2022-08-16T13:05:45;101219.55;;;29.60;38.34
72707;BME280;62517;62.630;17.936;2022-08-16T13:08:16;101211.93;;;29.52;38.30
72707;BME280;62517;62.630;17.936;2022-08-16T13:10:46;101210.01;;;29.59;38.42
72707;BME280;62517;62.630;17.936;2022-08-16T13:13:19;101209.38;;;29.79;38.32
72707;BME280;62517;62.630;17.936;2022-08-16T13:15:49;101205.36;;;29.61;38.30
72707;BME280;62517;62.630;17.936;2022-08-16T13:18:19;101205.63;;;29.46;38.27
72707;BME280;62517;62.630;17.936;2022-08-16T13:20:48;101205.94;;;29.53;38.23
72707;BME280;62517;62.630;17.936;2022-08-16T13:23:17;101206.67;;;29.47;38.27
72707;BME280;62517;62.630;17.936;2022-08-16T13:25:48;101206.52;;;29.56;38.32
72707;BME280;62517;62.630;17.936;2022-08-16T13:28:17;101201.99;;;29.56;38.34
72707;BME280;62517;62.630;17.936;2022-08-16T13:30:49;101200.12;;;29.62;38.35
72707;BME280;62517;62.630;17.936;2022-08-16T13:33:19;101199.42;;;29.57;38.39
72707;BME280;62517;62.630;17.936;2022-08-16T13:35:50;101198.94;;;29.56;38.35
72707;BME280;62517;62.630;17.936;2022-08-16T13:38:19;101208.40;;;29.45;38.42
72707;BME280;62517;62.630;17.936;2022-08-16T13:40:49;101208.76;;;29.62;38.41
72707;BME280;62517;62.630;17.936;2022-08-16T13:43:17;101209.90;;;29.60;38.44
72707;BME280;62517;62.630;17.936;2022-08-16T13:45:46;101211.01;;;29.56;38.45
72707;BME280;62517;62.630;17.936;2022-08-16T13:48:14;101207.22;;;29.56;38.40
72707;BME280;62517;62.630;17.936;2022-08-16T13:50:41;101207.42;;;29.49;38.50
72707;BME280;62517;62.630;17.936;2022-08-16T13:53:09;101206.65;;;29.48;38.40
72707;BME280;62517;62.630;17.936;2022-08-16T13:55:38;101205.31;;;29.54;38.40
72707;BME280;62517;62.630;17.936;2022-08-16T13:58:07;101198.89;;;29.52;38.38
72707;BME280;62517;62.630;17.936;2022-08-16T14:00:36;101202.88;;;29.50;38.37
72707;BME280;62517;62.630;17.936;2022-08-16T14:03:04;101206.17;;;29.58;38.30
72707;BME280;62517;62.630;17.936;2022-08-16T14:05:32;101212.59;;;29.51;38.32
72707;BME280;62517;62.630;17.936;2022-08-16T14:08:00;101213.98;;;29.68;38.32
72707;BME280;62517;62.630;17.936;2022-08-16T14:10:29;101208.47;;;29.54;38.21
72707;BME280;62517;62.630;17.936;2022-08-16T14:12:57;101204.88;;;29.52;38.25
72707;BME280;62517;62.630;17.936;2022-08-16T14:15:26;101212.26;;;29.56;38.26
72707;BME280;62517;62.630;17.936;2022-08-16T14:17:54;101209.20;;;29.57;38.29
72707;BME280;62517;62.630;17.936;2022-08-16T14:20:23;101209.94;;;29.54;38.17
72707;BME280;62517;62.630;17.936;2022-08-16T14:22:53;101207.10;;;29.56;38.20
72707;BME280;62517;62.630;17.936;2022-08-16T14:25:22;101199.07;;;29.58;38.22
72707;BME280;62517;62.630;17.936;2022-08-16T14:27:51;101197.27;;;29.57;38.26
72707;BME280;62517;62.630;17.936;2022-08-16T14:30:23;101187.91;;;29.56;38.17
72707;BME280;62517;62.630;17.936;2022-08-16T14:32:52;101182.52;;;29.44;38.15
72707;BME280;62517;62.630;17.936;2022-08-16T14:35:24;101177.21;;;29.48;38.24
72707;BME280;62517;62.630;17.936;2022-08-16T14:37:53;101178.96;;;29.49;38.15
72707;BME280;62517;62.630;17.936;2022-08-16T14:40:21;101181.24;;;29.71;38.08
72707;BME280;62517;62.630;17.936;2022-08-16T14:42:49;101179.96;;;29.60;38.10
72707;BME280;62517;62.630;17.936;2022-08-16T14:45:21;101180.18;;;29.67;38.05
72707;BME280;62517;62.630;17.936;2022-08-16T14:47:50;101176.11;;;29.67;38.00
72707;BME280;62517;62.630;17.936;2022-08-16T14:50:22;101175.53;;;29.60;38.09
